sensor_id;sensor_type;location;lat;lon;timestamp;P1;durP1;ratioP1;P2;durP2;ratioP2
81864;SDS011;71313;43.514;1.500;2023-12-07T00:01:33;30.85;;;13.30;;
81864;SDS011;71313;43.514;1.500;2023-12-07T00:03:59;31.52;;;14.45;;
81864;SDS011;71313;43.514;1.500;2023-12-07T00:06:25;37.50;;;19.15;;
81864;SDS011;71313;43.514;1.500;2023-12-07T00:08:51;39.05;;;18.67;;
81864;SDS011;71313;43.514;1.500;2023-12-07T00:11:16;41.72;;;19.45;;
81864;SDS011;71313;43.514;1.500;2023-12-07T00:13:42;39.03;;;19.50;;
81864;SDS011;71313;43.514;1.500;2023-12-07T00:16:07;27.88;;;13.77;;
81864;SDS011;71313;43.514;1.500;2023-12-07T00:18:33;27.92;;;13.80;;
81864;SDS011;71313;43.514;1.500;2023-12-07T00:21:01;24.50;;;11.85;;
81864;SDS011;71313;43.514;1.500;2023-12-07T00:23:26;26.40;;;13.80;;
81864;SDS011;71313;43.514;1.500;2023-12-07T00:25:51;23.02;;;10.93;;
81864;SDS011;71313;43.514;1.500;2023-12-07T00:28:18;21.58;;;10.35;;
81864;SDS011;71313;43.514;1.500;2023-12-07T00:30:44;21.52;;;10.70;;
81864;SDS011;71313;43.514;1.500;2023-12-07T00:33:09;28.25;;;13.25;;
81864;SDS011;71313;43.514;1.500;2023-12-07T00:35:34;26.13;;;12.85;;
81864;SDS011;71313;43.514;1.500;2023-12-07T00:38:00;24.85;;;12.75;;
81864;SDS011;71313;43.514;1.500;2023-12-07T00:40:26;18.67;;;10.30;;
81864;SDS011;71313;43.514;1.500;2023-12-07T00:42:51;17.08;;;9.02;;
81864;SDS011;71313;43.514;1.500;2023-12-07T00:45:17;19.13;;;9.60;;
81864;SDS011;71313;43.514;1.500;2023-12-07T00:47:43;19.25;;;9.70;;
81864;SDS011;71313;43.514;1.500;2023-12-07T00:50:08;17.75;;;8.90;;
81864;SDS011;71313;43.514;1.500;2023-12-07T00:52:37;15.32;;;8.63;;
81864;SDS011;71313;43.514;1.500;2023-12-07T00:55:02;17.77;;;9.75;;
81864;SDS011;71313;43.514;1.500;2023-12-07T00:57:28;20.00;;;10.13;;
81864;SDS011;71313;43.514;1.500;2023-12-07T00:59:55;14.27;;;8.98;;
81864;SDS011;71313;43.514;1.500;2023-12-07T01:02:21;16.45;;;8.88;;
81864;SDS011;71313;43.514;1.500;2023-12-07T01:04:46;16.20;;;8.45;;
81864;SDS011;71313;43.514;1.500;2023-12-07T01:07:12;13.45;;;8.35;;
81864;SDS011;71313;43.514;1.500;2023-12-07T01:09:38;14.73;;;8.38;;
81864;SDS011;71313;43.514;1.500;2023-12-07T01:12:04;17.08;;;8.57;;
81864;SDS011;71313;43.514;1.500;2023-12-07T01:14:32;14.77;;;8.27;;
81864;SDS011;71313;43.514;1.500;2023-12-07T01:16:57;14.90;;;8.95;;
81864;SDS011;71313;43.514;1.500;2023-12-07T01:19:23;14.95;;;8.77;;
81864;SDS011;71313;43.514;1.500;2023-12-07T01:21:50;14.65;;;8.77;;
81864;SDS011;71313;43.514;1.500;2023-12-07T01:24:15;20.25;;;8.23;;
81864;SDS011;71313;43.514;1.500;2023-12-07T01:26:40;18.50;;;9.10;;
81864;SDS011;71313;43.514;1.500;2023-12-07T01:29:06;15.57;;;8.32;;
81864;SDS011;71313;43.514;1.500;2023-12-07T01:31:32;15.48;;;7.60;;
81864;SDS011;71313;43.514;1.500;2023-12-07T01:33:57;14.88;;;8.38;;
81864;SDS011;71313;43.514;1.500;2023-12-07T01:36:23;15.43;;;7.97;;
81864;SDS011;71313;43.514;1.500;2023-12-07T01:38:48;15.07;;;7.72;;
81864;SDS011;71313;43.514;1.500;2023-12-07T01:41:13;13.30;;;7.50;;
81864;SDS011;71313;43.514;1.500;2023-12-07T01:43:44;13.10;;;8.05;;
81864;SDS011;71313;43.514;1.500;2023-12-07T01:46:13;16.08;;;8.38;;
81864;SDS011;71313;43.514;1.500;2023-12-07T01:48:39;17.88;;;8.50;;
81864;SDS011;71313;43.514;1.500;2023-12-07T01:51:05;13.77;;;8.27;;
81864;SDS011;71313;43.514;1.500;2023-12-07T01:53:31;13.85;;;8.07;;
81864;SDS011;71313;43.514;1.500;2023-12-07T01:55:58;14.45;;;8.05;;
81864;SDS011;71313;43.514;1.500;2023-12-07T01:58:23;15.48;;;8.00;;
81864;SDS011;71313;43.514;1.500;2023-12-07T02:00:49;12.20;;;7.43;;
81864;SDS011;71313;43.514;1.500;2023-12-07T02:03:14;14.23;;;7.38;;
81864;SDS011;71313;43.514;1.500;2023-12-07T02:05:42;14.55;;;7.07;;
81864;SDS011;71313;43.514;1.500;2023-12-07T02:08:11;15.27;;;8.27;;
81864;SDS011;71313;43.514;1.500;2023-12-07T02:10:36;12.57;;;7.30;;
81864;SDS011;71313;43.514;1.500;2023-12-07T02:13:01;13.13;;;6.63;;
81864;SDS011;71313;43.514;1.500;2023-12-07T02:15:28;15.98;;;7.72;;
81864;SDS011;71313;43.514;1.500;2023-12-07T02:17:58;12.85;;;7.05;;
81864;SDS011;71313;43.514;1.500;2023-12-07T02:23:25;13.88;;;7.85;;
81864;SDS011;71313;43.514;1.500;2023-12-07T02:25:54;14.38;;;7.10;;
81864;SDS011;71313;43.514;1.500;2023-12-07T02:28:19;14.98;;;8.02;;
81864;SDS011;71313;43.514;1.500;2023-12-07T02:30:45;12.73;;;6.72;;
81864;SDS011;71313;43.514;1.500;2023-12-07T02:33:11;13.10;;;7.72;;
81864;SDS011;71313;43.514;1.500;2023-12-07T02:35:37;14.65;;;7.20;;
81864;SDS011;71313;43.514;1.500;2023-12-07T02:38:05;13.88;;;7.80;;
81864;SDS011;71313;43.514;1.500;2023-12-07T02:40:31;14.10;;;7.10;;
81864;SDS011;71313;43.514;1.500;2023-12-07T02:42:57;14.15;;;7.85;;
81864;SDS011;71313;43.514;1.500;2023-12-07T02:45:24;12.27;;;7.55;;
81864;SDS011;71313;43.514;1.500;2023-12-07T02:47:50;12.52;;;6.95;;
81864;SDS011;71313;43.514;1.500;2023-12-07T02:50:16;13.55;;;7.45;;
81864;SDS011;71313;43.514;1.500;2023-12-07T02:52:41;13.90;;;7.40;;
81864;SDS011;71313;43.514;1.500;2023-12-07T02:55:07;12.07;;;7.47;;
81864;SDS011;71313;43.514;1.500;2023-12-07T02:57:32;13.10;;;7.32;;
81864;SDS011;71313;43.514;1.500;2023-12-07T03:00:02;11.82;;;6.80;;
81864;SDS011;71313;43.514;1.500;2023-12-07T03:02:32;13.25;;;7.40;;
81864;SDS011;71313;43.514;1.500;2023-12-07T03:04:59;12.90;;;7.88;;
81864;SDS011;71313;43.514;1.500;2023-12-07T03:07:24;12.30;;;7.53;;
81864;SDS011;71313;43.514;1.500;2023-12-07T03:09:50;14.07;;;7.78;;
81864;SDS011;71313;43.514;1.500;2023-12-07T03:12:16;14.98;;;8.02;;
81864;SDS011;71313;43.514;1.500;2023-12-07T03:14:41;15.73;;;8.30;;
81864;SDS011;71313;43.514;1.500;2023-12-07T03:17:06;13.13;;;7.40;;
81864;SDS011;71313;43.514;1.500;2023-12-07T03:19:37;17.33;;;8.15;;
81864;SDS011;71313;43.514;1.500;2023-12-07T03:22:03;13.75;;;7.22;;
81864;SDS011;71313;43.514;1.500;2023-12-07T03:24:29;12.57;;;7.40;;
81864;SDS011;71313;43.514;1.500;2023-12-07T03:26:54;14.10;;;7.70;;
81864;SDS011;71313;43.514;1.500;2023-12-07T03:29:20;13.35;;;7.18;;
81864;SDS011;71313;43.514;1.500;2023-12-07T03:31:45;10.40;;;6.43;;
81864;SDS011;71313;43.514;1.500;2023-12-07T03:34:11;14.43;;;6.90;;
81864;SDS011;71313;43.514;1.500;2023-12-07T03:36:37;15.98;;;6.63;;
81864;SDS011;71313;43.514;1.500;2023-12-07T03:39:04;10.80;;;6.18;;
81864;SDS011;71313;43.514;1.500;2023-12-07T03:41:29;11.85;;;6.20;;
81864;SDS011;71313;43.514;1.500;2023-12-07T03:43:55;13.02;;;6.72;;
81864;SDS011;71313;43.514;1.500;2023-12-07T03:46:22;10.43;;;6.47;;
81864;SDS011;71313;43.514;1.500;2023-12-07T03:48:47;11.35;;;6.15;;
81864;SDS011;71313;43.514;1.500;2023-12-07T03:51:13;9.50;;;5.55;;
81864;SDS011;71313;43.514;1.500;2023-12-07T03:53:41;11.80;;;6.20;;
81864;SDS011;71313;43.514;1.500;2023-12-07T03:56:07;9.48;;;5.30;;
81864;SDS011;71313;43.514;1.500;2023-12-07T03:58:33;9.75;;;5.50;;
81864;SDS011;71313;43.514;1.500;2023-12-07T04:00:59;9.10;;;5.07;;
81864;SDS011;71313;43.514;1.500;2023-12-07T04:03:24;7.45;;;4.40;;
81864;SDS011;71313;43.514;1.500;2023-12-07T04:05:50;9.75;;;5.03;;
81864;SDS011;71313;43.514;1.500;2023-12-07T04:08:16;8.15;;;4.60;;
81864;SDS011;71313;43.514;1.500;2023-12-07T04:10:41;8.85;;;5.22;;
81864;SDS011;71313;43.514;1.500;2023-12-07T04:13:07;9.23;;;4.63;;
81864;SDS011;71313;43.514;1.500;2023-12-07T04:15:33;8.70;;;5.05;;
81864;SDS011;71313;43.514;1.500;2023-12-07T04:17:59;10.43;;;4.68;;
81864;SDS011;71313;43.514;1.500;2023-12-07T04:20:25;8.52;;;4.50;;
81864;SDS011;71313;43.514;1.500;2023-12-07T04:22:50;9.95;;;5.10;;
81864;SDS011;71313;43.514;1.500;2023-12-07T04:25:16;8.63;;;4.95;;
81864;SDS011;71313;43.514;1.500;2023-12-07T04:27:41;8.35;;;4.55;;
81864;SDS011;71313;43.514;1.500;2023-12-07T04:30:07;9.48;;;4.88;;
81864;SDS011;71313;43.514;1.500;2023-12-07T04:32:32;10.00;;;4.95;;
81864;SDS011;71313;43.514;1.500;2023-12-07T04:34:58;8.75;;;5.20;;
81864;SDS011;71313;43.514;1.500;2023-12-07T04:37:23;10.13;;;4.80;;
81864;SDS011;71313;43.514;1.500;2023-12-07T04:39:48;7.47;;;4.80;;
81864;SDS011;71313;43.514;1.500;2023-12-07T04:42:14;9.68;;;4.85;;
81864;SDS011;71313;43.514;1.500;2023-12-07T04:44:39;7.70;;;4.47;;
81864;SDS011;71313;43.514;1.500;2023-12-07T04:47:04;7.78;;;4.55;;
81864;SDS011;71313;43.514;1.500;2023-12-07T04:49:30;8.45;;;4.47;;
81864;SDS011;71313;43.514;1.500;2023-12-07T04:51:55;8.50;;;3.97;;
81864;SDS011;71313;43.514;1.500;2023-12-07T04:54:21;8.00;;;4.15;;
81864;SDS011;71313;43.514;1.500;2023-12-07T04:56:46;8.27;;;4.68;;
81864;SDS011;71313;43.514;1.500;2023-12-07T04:59:12;11.88;;;4.78;;
81864;SDS011;71313;43.514;1.500;2023-12-07T05:01:38;7.75;;;4.45;;
81864;SDS011;71313;43.514;1.500;2023-12-07T05:04:04;7.88;;;4.53;;
81864;SDS011;71313;43.514;1.500;2023-12-07T05:06:32;8.18;;;4.13;;
81864;SDS011;71313;43.514;1.500;2023-12-07T05:08:58;9.77;;;4.82;;
81864;SDS011;71313;43.514;1.500;2023-12-07T05:11:26;8.95;;;5.13;;
81864;SDS011;71313;43.514;1.500;2023-12-07T05:13:51;8.00;;;5.00;;
81864;SDS011;71313;43.514;1.500;2023-12-07T05:16:17;10.35;;;5.15;;
81864;SDS011;71313;43.514;1.500;2023-12-07T05:18:42;10.32;;;4.95;;
81864;SDS011;71313;43.514;1.500;2023-12-07T05:21:09;10.23;;;5.18;;
81864;SDS011;71313;43.514;1.500;2023-12-07T05:23:34;9.02;;;5.20;;
81864;SDS011;71313;43.514;1.500;2023-12-07T05:26:00;10.55;;;5.70;;
81864;SDS011;71313;43.514;1.500;2023-12-07T05:28:26;11.85;;;5.72;;
81864;SDS011;71313;43.514;1.500;2023-12-07T05:30:51;8.65;;;5.47;;
81864;SDS011;71313;43.514;1.500;2023-12-07T05:33:20;8.32;;;5.15;;
81864;SDS011;71313;43.514;1.500;2023-12-07T05:35:46;9.93;;;5.35;;
81864;SDS011;71313;43.514;1.500;2023-12-07T05:38:11;10.77;;;5.13;;
81864;SDS011;71313;43.514;1.500;2023-12-07T05:40:37;11.85;;;5.85;;
81864;SDS011;71313;43.514;1.500;2023-12-07T05:43:02;10.05;;;6.18;;
81864;SDS011;71313;43.514;1.500;2023-12-07T05:45:28;9.68;;;5.30;;
81864;SDS011;71313;43.514;1.500;2023-12-07T05:47:54;10.75;;;5.90;;
81864;SDS011;71313;43.514;1.500;2023-12-07T05:50:19;7.57;;;4.85;;
81864;SDS011;71313;43.514;1.500;2023-12-07T05:52:45;9.25;;;5.30;;
81864;SDS011;71313;43.514;1.500;2023-12-07T05:55:11;9.13;;;4.88;;
81864;SDS011;71313;43.514;1.500;2023-12-07T05:57:36;7.65;;;4.50;;
81864;SDS011;71313;43.514;1.500;2023-12-07T06:00:02;7.25;;;4.13;;
81864;SDS011;71313;43.514;1.500;2023-12-07T06:02:28;9.48;;;4.90;;
81864;SDS011;71313;43.514;1.500;2023-12-07T06:04:53;7.43;;;3.70;;
81864;SDS011;71313;43.514;1.500;2023-12-07T06:07:19;5.95;;;3.47;;
81864;SDS011;71313;43.514;1.500;2023-12-07T06:09:46;7.18;;;3.72;;
81864;SDS011;71313;43.514;1.500;2023-12-07T06:12:13;8.48;;;3.53;;
81864;SDS011;71313;43.514;1.500;2023-12-07T06:14:38;6.93;;;3.65;;
81864;SDS011;71313;43.514;1.500;2023-12-07T06:17:03;9.18;;;3.70;;
81864;SDS011;71313;43.514;1.500;2023-12-07T06:19:29;8.43;;;4.38;;
81864;SDS011;71313;43.514;1.500;2023-12-07T06:21:54;7.18;;;3.58;;
81864;SDS011;71313;43.514;1.500;2023-12-07T06:24:20;7.88;;;3.95;;
81864;SDS011;71313;43.514;1.500;2023-12-07T06:26:49;9.98;;;4.00;;
81864;SDS011;71313;43.514;1.500;2023-12-07T06:29:15;6.03;;;3.70;;
81864;SDS011;71313;43.514;1.500;2023-12-07T06:31:44;8.35;;;4.38;;
81864;SDS011;71313;43.514;1.500;2023-12-07T06:34:09;7.38;;;4.13;;
81864;SDS011;71313;43.514;1.500;2023-12-07T06:36:35;9.25;;;5.13;;
81864;SDS011;71313;43.514;1.500;2023-12-07T06:39:01;6.95;;;3.80;;
81864;SDS011;71313;43.514;1.500;2023-12-07T06:41:28;6.97;;;3.63;;
81864;SDS011;71313;43.514;1.500;2023-12-07T06:43:53;7.38;;;3.65;;
81864;SDS011;71313;43.514;1.500;2023-12-07T06:46:19;9.25;;;3.40;;
81864;SDS011;71313;43.514;1.500;2023-12-07T06:48:46;6.80;;;3.33;;
81864;SDS011;71313;43.514;1.500;2023-12-07T06:51:12;7.55;;;3.67;;
81864;SDS011;71313;43.514;1.500;2023-12-07T06:53:39;7.38;;;4.00;;
81864;SDS011;71313;43.514;1.500;2023-12-07T06:56:06;6.47;;;3.80;;
81864;SDS011;71313;43.514;1.500;2023-12-07T06:58:32;7.10;;;3.97;;
81864;SDS011;71313;43.514;1.500;2023-12-07T07:00:58;7.70;;;4.22;;
81864;SDS011;71313;43.514;1.500;2023-12-07T07:03:24;7.57;;;3.60;;
81864;SDS011;71313;43.514;1.500;2023-12-07T07:05:49;7.05;;;3.65;;
81864;SDS011;71313;43.514;1.500;2023-12-07T07:08:15;5.70;;;3.17;;
81864;SDS011;71313;43.514;1.500;2023-12-07T07:10:41;6.75;;;3.33;;
81864;SDS011;71313;43.514;1.500;2023-12-07T07:13:06;6.80;;;3.40;;
81864;SDS011;71313;43.514;1.500;2023-12-07T07:15:32;7.25;;;3.90;;
81864;SDS011;71313;43.514;1.500;2023-12-07T07:17:57;8.80;;;3.67;;
81864;SDS011;71313;43.514;1.500;2023-12-07T07:20:23;9.40;;;4.05;;
81864;SDS011;71313;43.514;1.500;2023-12-07T07:22:48;14.57;;;7.18;;
81864;SDS011;71313;43.514;1.500;2023-12-07T07:25:13;6.88;;;3.88;;
81864;SDS011;71313;43.514;1.500;2023-12-07T07:27:41;7.78;;;3.45;;
81864;SDS011;71313;43.514;1.500;2023-12-07T07:30:09;7.95;;;3.85;;
81864;SDS011;71313;43.514;1.500;2023-12-07T07:32:35;6.88;;;3.67;;
81864;SDS011;71313;43.514;1.500;2023-12-07T07:35:01;6.63;;;3.78;;
81864;SDS011;71313;43.514;1.500;2023-12-07T07:37:26;9.73;;;3.67;;
81864;SDS011;71313;43.514;1.500;2023-12-07T07:39:52;7.25;;;3.95;;
81864;SDS011;71313;43.514;1.500;2023-12-07T07:42:17;5.97;;;3.28;;
81864;SDS011;71313;43.514;1.500;2023-12-07T07:44:42;5.22;;;3.17;;
81864;SDS011;71313;43.514;1.500;2023-12-07T07:47:08;4.93;;;3.10;;
81864;SDS011;71313;43.514;1.500;2023-12-07T07:49:33;7.45;;;3.65;;
81864;SDS011;71313;43.514;1.500;2023-12-07T07:51:59;7.57;;;4.05;;
81864;SDS011;71313;43.514;1.500;2023-12-07T07:54:26;7.05;;;3.65;;
81864;SDS011;71313;43.514;1.500;2023-12-07T07:56:52;6.70;;;3.35;;
81864;SDS011;71313;43.514;1.500;2023-12-07T07:59:18;6.70;;;3.28;;
81864;SDS011;71313;43.514;1.500;2023-12-07T08:01:45;7.97;;;3.55;;
81864;SDS011;71313;43.514;1.500;2023-12-07T08:04:13;9.23;;;4.25;;
81864;SDS011;71313;43.514;1.500;2023-12-07T08:06:38;9.05;;;4.45;;
81864;SDS011;71313;43.514;1.500;2023-12-07T08:09:04;6.68;;;3.97;;
81864;SDS011;71313;43.514;1.500;2023-12-07T08:11:30;7.07;;;4.20;;
81864;SDS011;71313;43.514;1.500;2023-12-07T08:13:57;9.15;;;4.43;;
81864;SDS011;71313;43.514;1.500;2023-12-07T08:16:25;12.60;;;5.13;;
81864;SDS011;71313;43.514;1.500;2023-12-07T08:18:52;7.72;;;4.68;;
81864;SDS011;71313;43.514;1.500;2023-12-07T08:21:21;6.95;;;5.53;;
81864;SDS011;71313;43.514;1.500;2023-12-07T08:23:47;6.30;;;3.70;;
81864;SDS011;71313;43.514;1.500;2023-12-07T08:26:13;7.35;;;3.38;;
81864;SDS011;71313;43.514;1.500;2023-12-07T08:28:40;11.05;;;2.90;;
81864;SDS011;71313;43.514;1.500;2023-12-07T08:31:07;7.20;;;2.72;;
81864;SDS011;71313;43.514;1.500;2023-12-07T08:33:33;6.53;;;3.55;;
81864;SDS011;71313;43.514;1.500;2023-12-07T08:36:04;4.38;;;1.70;;
81864;SDS011;71313;43.514;1.500;2023-12-07T08:38:30;3.90;;;1.90;;
81864;SDS011;71313;43.514;1.500;2023-12-07T08:40:56;3.10;;;1.63;;
81864;SDS011;71313;43.514;1.500;2023-12-07T08:43:23;4.65;;;1.80;;
81864;SDS011;71313;43.514;1.500;2023-12-07T08:45:49;4.45;;;1.58;;
81864;SDS011;71313;43.514;1.500;2023-12-07T08:48:18;2.63;;;1.60;;
81864;SDS011;71313;43.514;1.500;2023-12-07T08:50:45;3.33;;;1.90;;
81864;SDS011;71313;43.514;1.500;2023-12-07T08:53:11;5.72;;;1.90;;
81864;SDS011;71313;43.514;1.500;2023-12-07T08:55:36;3.45;;;1.70;;
81864;SDS011;71313;43.514;1.500;2023-12-07T08:58:02;4.13;;;1.70;;
81864;SDS011;71313;43.514;1.500;2023-12-07T09:00:30;3.17;;;1.50;;
81864;SDS011;71313;43.514;1.500;2023-12-07T09:02:56;6.18;;;1.80;;
81864;SDS011;71313;43.514;1.500;2023-12-07T09:05:22;3.10;;;1.40;;
81864;SDS011;71313;43.514;1.500;2023-12-07T09:07:48;3.80;;;1.63;;
81864;SDS011;71313;43.514;1.500;2023-12-07T09:10:14;1.95;;;1.30;;
81864;SDS011;71313;43.514;1.500;2023-12-07T09:12:39;2.05;;;1.38;;
81864;SDS011;71313;43.514;1.500;2023-12-07T09:15:05;3.10;;;1.40;;
81864;SDS011;71313;43.514;1.500;2023-12-07T09:17:35;2.33;;;1.45;;
81864;SDS011;71313;43.514;1.500;2023-12-07T09:20:09;4.70;;;1.40;;
81864;SDS011;71313;43.514;1.500;2023-12-07T09:22:43;4.72;;;1.65;;
81864;SDS011;71313;43.514;1.500;2023-12-07T09:25:09;2.95;;;1.48;;
81864;SDS011;71313;43.514;1.500;2023-12-07T09:27:36;4.45;;;2.00;;
81864;SDS011;71313;43.514;1.500;2023-12-07T09:30:04;2.25;;;1.50;;
81864;SDS011;71313;43.514;1.500;2023-12-07T09:32:30;3.65;;;1.67;;
81864;SDS011;71313;43.514;1.500;2023-12-07T09:34:55;5.80;;;1.85;;
81864;SDS011;71313;43.514;1.500;2023-12-07T09:37:21;2.63;;;1.63;;
81864;SDS011;71313;43.514;1.500;2023-12-07T09:39:47;2.83;;;1.33;;
81864;SDS011;71313;43.514;1.500;2023-12-07T09:42:12;3.55;;;1.60;;
81864;SDS011;71313;43.514;1.500;2023-12-07T09:44:38;2.53;;;1.55;;
81864;SDS011;71313;43.514;1.500;2023-12-07T09:47:04;3.38;;;2.17;;
81864;SDS011;71313;43.514;1.500;2023-12-07T09:49:31;4.25;;;1.30;;
81864;SDS011;71313;43.514;1.500;2023-12-07T09:51:56;5.75;;;1.40;;
81864;SDS011;71313;43.514;1.500;2023-12-07T09:54:23;2.83;;;1.58;;
81864;SDS011;71313;43.514;1.500;2023-12-07T09:56:51;2.17;;;1.50;;
81864;SDS011;71313;43.514;1.500;2023-12-07T09:59:19;4.43;;;1.52;;
81864;SDS011;71313;43.514;1.500;2023-12-07T10:01:45;2.35;;;1.40;;
81864;SDS011;71313;43.514;1.500;2023-12-07T10:06:47;2.28;;;1.40;;
81864;SDS011;71313;43.514;1.500;2023-12-07T10:09:14;2.08;;;1.10;;
81864;SDS011;71313;43.514;1.500;2023-12-07T10:11:40;3.08;;;1.58;;
81864;SDS011;71313;43.514;1.500;2023-12-07T10:14:06;2.92;;;1.48;;
81864;SDS011;71313;43.514;1.500;2023-12-07T10:16:35;2.42;;;1.30;;
81864;SDS011;71313;43.514;1.500;2023-12-07T10:19:34;2.65;;;1.27;;
81864;SDS011;71313;43.514;1.500;2023-12-07T10:21:54;2.17;;;1.55;;
81864;SDS011;71313;43.514;1.500;2023-12-07T10:24:20;4.10;;;1.40;;
81864;SDS011;71313;43.514;1.500;2023-12-07T10:26:47;5.13;;;1.63;;
81864;SDS011;71313;43.514;1.500;2023-12-07T10:29:18;2.30;;;1.50;;
81864;SDS011;71313;43.514;1.500;2023-12-07T10:31:45;2.58;;;1.48;;
81864;SDS011;71313;43.514;1.500;2023-12-07T10:34:12;2.72;;;1.55;;
81864;SDS011;71313;43.514;1.500;2023-12-07T10:36:38;2.22;;;1.67;;
81864;SDS011;71313;43.514;1.500;2023-12-07T10:39:03;2.47;;;1.40;;
81864;SDS011;71313;43.514;1.500;2023-12-07T10:41:31;3.10;;;1.30;;
81864;SDS011;71313;43.514;1.500;2023-12-07T10:44:00;3.60;;;1.50;;
81864;SDS011;71313;43.514;1.500;2023-12-07T10:46:28;3.50;;;1.42;;
81864;SDS011;71313;43.514;1.500;2023-12-07T10:48:55;3.35;;;1.48;;
81864;SDS011;71313;43.514;1.500;2023-12-07T10:53:51;2.53;;;1.23;;
81864;SDS011;71313;43.514;1.500;2023-12-07T10:59:11;2.65;;;1.60;;
81864;SDS011;71313;43.514;1.500;2023-12-07T11:01:38;3.75;;;1.80;;
81864;SDS011;71313;43.514;1.500;2023-12-07T11:04:04;3.42;;;1.52;;
81864;SDS011;71313;43.514;1.500;2023-12-07T11:06:32;3.72;;;1.50;;
81864;SDS011;71313;43.514;1.500;2023-12-07T11:09:00;2.50;;;1.20;;
81864;SDS011;71313;43.514;1.500;2023-12-07T11:11:36;3.00;;;1.48;;
81864;SDS011;71313;43.514;1.500;2023-12-07T11:14:08;2.40;;;1.20;;
81864;SDS011;71313;43.514;1.500;2023-12-07T11:16:40;1.85;;;1.20;;
81864;SDS011;71313;43.514;1.500;2023-12-07T11:21:55;2.65;;;1.50;;
81864;SDS011;71313;43.514;1.500;2023-12-07T11:24:22;2.88;;;1.77;;
81864;SDS011;71313;43.514;1.500;2023-12-07T11:26:48;2.72;;;1.58;;
81864;SDS011;71313;43.514;1.500;2023-12-07T11:29:14;3.78;;;2.00;;
81864;SDS011;71313;43.514;1.500;2023-12-07T11:31:39;2.42;;;1.67;;
81864;SDS011;71313;43.514;1.500;2023-12-07T11:34:06;2.20;;;1.45;;
81864;SDS011;71313;43.514;1.500;2023-12-07T11:36:32;4.15;;;1.70;;
81864;SDS011;71313;43.514;1.500;2023-12-07T11:41:29;4.32;;;1.70;;
81864;SDS011;71313;43.514;1.500;2023-12-07T11:43:58;3.25;;;1.60;;
81864;SDS011;71313;43.514;1.500;2023-12-07T11:46:23;3.78;;;1.60;;
81864;SDS011;71313;43.514;1.500;2023-12-07T11:48:49;4.07;;;1.70;;
81864;SDS011;71313;43.514;1.500;2023-12-07T11:51:15;3.15;;;1.60;;
81864;SDS011;71313;43.514;1.500;2023-12-07T11:53:44;5.78;;;3.28;;
81864;SDS011;71313;43.514;1.500;2023-12-07T11:56:10;6.25;;;3.00;;
81864;SDS011;71313;43.514;1.500;2023-12-07T11:58:37;4.22;;;2.47;;
81864;SDS011;71313;43.514;1.500;2023-12-07T12:01:04;5.63;;;2.00;;
81864;SDS011;71313;43.514;1.500;2023-12-07T12:03:31;2.83;;;1.80;;
81864;SDS011;71313;43.514;1.500;2023-12-07T12:05:59;2.55;;;1.58;;
81864;SDS011;71313;43.514;1.500;2023-12-07T12:08:25;3.63;;;1.80;;
81864;SDS011;71313;43.514;1.500;2023-12-07T12:10:50;4.40;;;1.77;;
81864;SDS011;71313;43.514;1.500;2023-12-07T12:13:25;4.10;;;1.77;;
81864;SDS011;71313;43.514;1.500;2023-12-07T12:15:55;2.80;;;1.70;;
81864;SDS011;71313;43.514;1.500;2023-12-07T12:18:21;2.97;;;1.85;;
81864;SDS011;71313;43.514;1.500;2023-12-07T12:20:50;3.22;;;1.75;;
81864;SDS011;71313;43.514;1.500;2023-12-07T12:23:16;4.25;;;1.80;;
81864;SDS011;71313;43.514;1.500;2023-12-07T12:25:41;4.00;;;1.35;;
81864;SDS011;71313;43.514;1.500;2023-12-07T12:28:07;3.30;;;1.23;;
81864;SDS011;71313;43.514;1.500;2023-12-07T12:30:33;2.85;;;1.40;;
81864;SDS011;71313;43.514;1.500;2023-12-07T12:32:59;4.28;;;2.85;;
81864;SDS011;71313;43.514;1.500;2023-12-07T12:35:27;5.43;;;2.40;;
81864;SDS011;71313;43.514;1.500;2023-12-07T12:37:53;4.55;;;2.15;;
81864;SDS011;71313;43.514;1.500;2023-12-07T12:40:20;6.68;;;1.80;;
81864;SDS011;71313;43.514;1.500;2023-12-07T12:42:47;3.83;;;2.00;;
81864;SDS011;71313;43.514;1.500;2023-12-07T12:45:14;2.97;;;1.60;;
81864;SDS011;71313;43.514;1.500;2023-12-07T12:47:41;3.47;;;1.70;;
81864;SDS011;71313;43.514;1.500;2023-12-07T12:50:08;2.42;;;1.63;;
81864;SDS011;71313;43.514;1.500;2023-12-07T12:52:41;4.88;;;1.95;;
81864;SDS011;71313;43.514;1.500;2023-12-07T12:55:08;3.33;;;1.65;;
81864;SDS011;71313;43.514;1.500;2023-12-07T12:57:35;3.35;;;1.70;;
81864;SDS011;71313;43.514;1.500;2023-12-07T13:00:01;3.33;;;1.67;;
81864;SDS011;71313;43.514;1.500;2023-12-07T13:02:27;3.45;;;1.65;;
81864;SDS011;71313;43.514;1.500;2023-12-07T13:04:52;3.13;;;1.60;;
81864;SDS011;71313;43.514;1.500;2023-12-07T13:07:18;2.25;;;1.42;;
81864;SDS011;71313;43.514;1.500;2023-12-07T13:09:44;4.57;;;1.35;;
81864;SDS011;71313;43.514;1.500;2023-12-07T13:12:10;2.22;;;1.40;;
81864;SDS011;71313;43.514;1.500;2023-12-07T13:14:37;3.80;;;1.30;;
81864;SDS011;71313;43.514;1.500;2023-12-07T13:17:04;4.07;;;1.33;;
81864;SDS011;71313;43.514;1.500;2023-12-07T13:19:30;2.28;;;1.27;;
81864;SDS011;71313;43.514;1.500;2023-12-07T13:21:56;3.30;;;1.40;;
81864;SDS011;71313;43.514;1.500;2023-12-07T13:24:22;2.55;;;1.15;;
81864;SDS011;71313;43.514;1.500;2023-12-07T13:26:47;4.05;;;1.70;;
81864;SDS011;71313;43.514;1.500;2023-12-07T13:29:13;2.63;;;1.42;;
81864;SDS011;71313;43.514;1.500;2023-12-07T13:31:38;3.78;;;1.80;;
81864;SDS011;71313;43.514;1.500;2023-12-07T13:34:04;2.22;;;1.70;;
81864;SDS011;71313;43.514;1.500;2023-12-07T13:36:29;4.10;;;2.13;;
81864;SDS011;71313;43.514;1.500;2023-12-07T13:38:56;4.13;;;1.60;;
81864;SDS011;71313;43.514;1.500;2023-12-07T13:41:22;2.92;;;1.50;;
81864;SDS011;71313;43.514;1.500;2023-12-07T13:43:48;4.30;;;2.17;;
81864;SDS011;71313;43.514;1.500;2023-12-07T13:46:14;3.92;;;1.98;;
81864;SDS011;71313;43.514;1.500;2023-12-07T13:48:41;3.17;;;1.45;;
81864;SDS011;71313;43.514;1.500;2023-12-07T13:51:07;3.60;;;2.13;;
81864;SDS011;71313;43.514;1.500;2023-12-07T13:53:33;6.20;;;2.05;;
81864;SDS011;71313;43.514;1.500;2023-12-07T13:56:00;2.25;;;1.40;;
81864;SDS011;71313;43.514;1.500;2023-12-07T13:58:29;2.28;;;1.60;;
81864;SDS011;71313;43.514;1.500;2023-12-07T14:00:54;3.67;;;1.90;;
81864;SDS011;71313;43.514;1.500;2023-12-07T14:03:20;4.50;;;1.80;;
81864;SDS011;71313;43.514;1.500;2023-12-07T14:05:46;4.53;;;2.10;;
81864;SDS011;71313;43.514;1.500;2023-12-07T14:08:12;2.63;;;1.90;;
81864;SDS011;71313;43.514;1.500;2023-12-07T14:10:38;1.80;;;1.50;;
81864;SDS011;71313;43.514;1.500;2023-12-07T14:13:03;5.00;;;2.10;;
81864;SDS011;71313;43.514;1.500;2023-12-07T14:15:29;4.50;;;2.00;;
81864;SDS011;71313;43.514;1.500;2023-12-07T14:17:57;5.07;;;2.35;;
81864;SDS011;71313;43.514;1.500;2023-12-07T14:20:24;3.97;;;1.95;;
81864;SDS011;71313;43.514;1.500;2023-12-07T14:22:52;5.32;;;2.80;;
81864;SDS011;71313;43.514;1.500;2023-12-07T14:25:18;5.28;;;2.50;;
81864;SDS011;71313;43.514;1.500;2023-12-07T14:27:46;4.28;;;1.90;;
81864;SDS011;71313;43.514;1.500;2023-12-07T14:30:11;3.88;;;1.90;;
81864;SDS011;71313;43.514;1.500;2023-12-07T14:32:37;3.63;;;2.10;;
81864;SDS011;71313;43.514;1.500;2023-12-07T14:35:03;5.13;;;2.65;;
81864;SDS011;71313;43.514;1.500;2023-12-07T14:37:29;3.67;;;2.10;;
81864;SDS011;71313;43.514;1.500;2023-12-07T14:39:55;2.67;;;1.85;;
81864;SDS011;71313;43.514;1.500;2023-12-07T14:42:21;3.90;;;1.70;;
81864;SDS011;71313;43.514;1.500;2023-12-07T14:44:47;3.08;;;1.70;;
81864;SDS011;71313;43.514;1.500;2023-12-07T14:47:13;4.75;;;1.58;;
81864;SDS011;71313;43.514;1.500;2023-12-07T14:49:38;3.30;;;1.80;;
81864;SDS011;71313;43.514;1.500;2023-12-07T14:52:05;4.68;;;2.10;;
81864;SDS011;71313;43.514;1.500;2023-12-07T14:54:31;3.75;;;2.47;;